Leamington, UT

5:25 PM MDT on August 30, 2015 (GMT -0600)
Oak City | | Change Station
CLOSE
Current Station
Personal Weather Station
Location: Oak City, UT
Elevation: 5066 ft
Nearby Weather Stations

Elev 5066 ft 39.38 °N, 112.34 °W | Updated 17 seconds ago

Clear
Clear
86.6 °F
Feels Like 83 °F
N
4.0
Wind Variable Wind from SE
Gusts 12.0 mph

Today
High -- | Low -- °F
--% Chance of Precip.
Yesterday
High -- | Low -- °F
Precip. -- in
6:55 AM 8:03 PM
Full, 98% visible
Pressure 29.92 in
Visibility 15.0 miles
Clouds Scattered Clouds 9000 ft
Mostly Cloudy 12000 ft
Heat Index 83 °F
Dew Point 42 °F
Humidity 21%
Rainfall 0.00 in
Snow Depth Not available.
UV 2 out of 12
Pollen 8.90 out of 12
Air Quality Not available.
Flu Activity Not available.
METAR KPVU 302259Z VRB05KT 15SM SCT090 BKN120 28/13 A2992
Pressure 29.92 in
Visibility 15.0 miles
Clouds Scattered Clouds 9000 ft
Mostly Cloudy 12000 ft
Heat Index 83 °F
Dew Point 42 °F
Humidity 21%
Rainfall 0.00 in
Snow Depth Not available.
UV 2 out of 12
Pollen 8.90 out of 12
Air Quality Not available.
Flu Activity Not available.
METAR KPVU 302259Z VRB05KT 15SM SCT090 BKN120 28/13 A2992
Nowcast | as of 5:16 PM MDT on August 30, 2015

Scattered showers and thunderstorms will continue to develop this evening over portions of southern...central and northeast Utah...along with southwest Wyoming. The strongest storms at 510 PM were located across central Kane County between Kodachrome Basin State Park and Big Water...just northwest of Fish Lake...and in Summit County south of Castle Rock. Some of the stronger storms may produce locally heavy rain...small hail...strong gusty winds and frequent lightning.

×

10-Day Weather Forecast

×

Almanac

Astronomy

Aug. 30, 2015 Rise Set
Actual Time
Civil Twilight
Nautical Twilight
Astronomical Twilight
Moon
Length of Visible Light
Length of Day
Tomorrow will be .
, % of the Moon is Illuminated

Today's Extremes

State Highs State Lows

Community

WunderPhotos

Upload Photos

1,851,084 photos uploaded!

WunderBlogs® & News

Nearby

Air Quality

  Air Quality AQ Index Pollutant
Not available.

Snow Depth

Station Depth Elevation

Earthquake Activity

City Distance Mag. Time & Date
Minimum magnitude displayed is 2.5.

Coastal Water Temperatures

Place Temperature

Stations

Nearby Weather Stations

Station Location Temp. Windchill Dew Point Humidity Wind Precip. Elev Updated Type